createdAt,value
2018-06-05T00:00:15.045Z,18.30
2018-06-05T00:02:45.760Z,18.30
2018-06-05T00:05:17.643Z,18.30
2018-06-05T00:07:51.124Z,18.30
2018-06-05T00:12:59.719Z,18.00
2018-06-05T00:15:30.464Z,17.80
2018-06-05T00:18:00.344Z,17.80
2018-06-05T00:20:30.543Z,17.80
2018-06-05T00:23:05.019Z,18.00
2018-06-05T00:25:36.821Z,17.90
2018-06-05T00:28:08.094Z,17.80
2018-06-05T00:30:43.140Z,17.50
2018-06-05T00:35:53.319Z,17.50
2018-06-05T00:38:27.153Z,17.60
2018-06-05T00:40:57.262Z,17.50
2018-06-05T00:43:27.585Z,17.40
2018-06-05T00:45:58.490Z,17.60
2018-06-05T00:48:30.625Z,17.60
2018-06-05T00:51:01.149Z,17.40
2018-06-05T00:53:31.037Z,17.50
2018-06-05T00:56:06.918Z,17.60
2018-06-05T00:58:37.441Z,17.60
2018-06-05T01:01:07.269Z,17.70
2018-06-05T01:03:37.312Z,17.50
2018-06-05T01:06:07.002Z,17.40
2018-06-05T01:08:37.113Z,17.40
2018-06-05T01:11:08.093Z,17.40
2018-06-05T01:13:38.443Z,17.30
2018-06-05T01:16:08.775Z,17.20
2018-06-05T01:18:38.384Z,17.30
2018-06-05T01:21:08.374Z,17.40
2018-06-05T01:23:37.899Z,17.20
2018-06-05T01:26:07.620Z,17.00
2018-06-05T01:28:37.573Z,17.00
2018-06-05T01:31:08.876Z,17.00
2018-06-05T01:33:38.755Z,16.80
2018-06-05T01:36:09.353Z,16.90
2018-06-05T01:38:41.415Z,17.00
2018-06-05T01:41:11.642Z,17.00
2018-06-05T01:43:41.075Z,16.90
2018-06-05T01:46:10.926Z,16.90
2018-06-05T01:48:41.392Z,17.00
2018-06-05T01:51:11.793Z,17.10
2018-06-05T01:53:43.108Z,17.00
2018-06-05T01:56:13.116Z,16.80
2018-06-05T01:58:42.710Z,16.90
2018-06-05T02:01:11.973Z,17.00
2018-06-05T02:03:41.138Z,17.20
2018-06-05T02:06:11.086Z,17.30
2018-06-05T02:08:40.940Z,17.40
2018-06-05T02:11:10.988Z,17.40
2018-06-05T02:13:48.889Z,17.40
2018-06-05T02:16:19.531Z,17.40
2018-06-05T02:18:49.923Z,17.50
2018-06-05T02:21:19.885Z,17.50
2018-06-05T02:23:50.921Z,17.50
2018-06-05T02:26:21.459Z,17.30
2018-06-05T02:29:03.458Z,17.40
2018-06-05T02:31:45.264Z,17.50
2018-06-05T02:34:28.518Z,17.70
2018-06-05T02:37:03.843Z,17.40
2018-06-05T02:39:34.118Z,17.50
2018-06-05T02:42:10.409Z,17.40
2018-06-05T02:45:15.724Z,17.40
2018-06-05T02:47:49.569Z,17.60
2018-06-05T02:50:43.143Z,17.40
2018-06-05T02:58:42.814Z,17.60
2018-06-05T03:01:12.850Z,17.50
2018-06-05T03:03:43.978Z,17.60
2018-06-05T03:06:13.900Z,17.40
2018-06-05T03:10:45.361Z,17.30
2018-06-05T03:13:15.222Z,17.20
2018-06-05T03:15:47.108Z,17.20
2018-06-05T03:18:26.347Z,17.40
2018-06-05T06:20:44.507Z,18.90
2018-06-05T06:32:31.691Z,19.10
2018-06-05T06:35:00.545Z,19.00
2018-06-05T06:37:46.126Z,19.10
2018-06-05T06:40:17.950Z,19.10
2018-06-05T06:42:52.413Z,19.30
2018-06-05T06:45:21.532Z,19.30
2018-06-05T06:47:55.808Z,19.40
2018-06-05T06:50:28.881Z,19.50
2018-06-05T06:52:57.931Z,19.70
2018-06-05T06:55:32.574Z,19.60
2018-06-05T06:58:02.767Z,19.70
2018-06-05T07:00:34.503Z,19.90
2018-06-05T07:03:08.587Z,20.20
2018-06-05T07:05:37.434Z,20.20
2018-06-05T07:08:09.227Z,20.00
2018-06-05T07:10:39.805Z,19.90
2018-06-05T07:13:08.405Z,19.90
2018-06-05T07:15:38.552Z,20.10
2018-06-05T07:18:07.603Z,20.40
2018-06-05T07:20:40.090Z,20.60
2018-06-05T07:23:17.161Z,20.40
2018-06-05T07:25:47.288Z,20.40
2018-06-05T07:28:17.786Z,20.40
2018-06-05T07:30:47.589Z,20.50
2018-06-05T07:33:16.859Z,21.00
2018-06-05T07:35:46.883Z,21.00
2018-06-05T07:38:21.206Z,20.60
2018-06-05T07:40:50.501Z,20.50
2018-06-05T07:43:23.866Z,20.60
2018-06-05T07:45:52.451Z,20.90
2018-06-05T07:48:21.317Z,21.10
2018-06-05T07:50:49.973Z,21.10
2018-06-05T07:53:20.445Z,21.00
2018-06-05T07:59:59.686Z,21.30
2018-06-05T08:02:28.661Z,21.20
2018-06-05T08:04:57.770Z,21.50
2018-06-05T08:07:42.774Z,21.40
2018-06-05T08:10:16.575Z,21.70
2018-06-05T08:13:05.231Z,21.60
2018-06-05T08:15:42.543Z,21.60
2018-06-05T08:33:12.379Z,21.60
2018-06-05T08:35:41.245Z,22.10
2018-06-05T08:38:09.695Z,22.10
2018-06-05T08:40:41.862Z,21.80
2018-06-05T08:43:11.300Z,21.80
2018-06-05T08:51:47.188Z,22.10
2018-06-05T08:54:15.536Z,22.30
2018-06-05T08:56:44.769Z,22.30
2018-06-05T08:59:16.449Z,22.00
2018-06-05T09:01:44.953Z,22.10
2018-06-05T09:04:13.537Z,22.40
2018-06-05T09:06:46.217Z,22.30
2018-06-05T09:09:14.729Z,22.30
2018-06-05T09:11:43.250Z,22.70
2018-06-05T09:14:11.893Z,22.70
2018-06-05T09:16:41.335Z,22.50
2018-06-05T09:19:10.181Z,22.60
2018-06-05T09:21:38.691Z,22.50
2018-06-05T09:24:08.745Z,22.40
2018-06-05T09:26:38.161Z,22.20
2018-06-05T09:29:06.770Z,22.30
2018-06-05T09:31:36.511Z,22.20
2018-06-05T09:39:28.468Z,22.80
2018-06-05T10:54:00.070Z,22.50
2018-06-05T10:56:28.456Z,22.60
2018-06-05T10:58:56.797Z,22.60
2018-06-05T11:01:25.193Z,22.80
2018-06-05T11:03:54.073Z,22.80
2018-06-05T11:06:22.461Z,22.80
2018-06-05T11:08:56.639Z,22.70
2018-06-05T11:11:25.466Z,22.80
2018-06-05T11:13:53.828Z,22.80
2018-06-05T11:16:22.965Z,22.80
2018-06-05T11:18:52.234Z,22.80
2018-06-05T11:21:20.814Z,22.90
2018-06-05T11:24:02.270Z,22.90
2018-06-05T11:26:30.890Z,23.00
2018-06-05T11:28:59.345Z,22.90
2018-06-05T11:31:27.749Z,22.80
2018-06-05T11:33:56.166Z,22.90
2018-06-05T11:36:25.140Z,23.10
2018-06-05T11:38:53.613Z,22.90
2018-06-05T11:41:22.069Z,23.20
2018-06-05T11:43:50.402Z,23.30
2018-06-05T11:46:20.050Z,23.30
2018-06-05T11:48:48.424Z,23.50
2018-06-05T11:51:16.761Z,23.60
2018-06-05T11:53:45.073Z,23.60
2018-06-05T11:56:13.736Z,23.20
2018-06-05T11:58:42.159Z,23.20
2018-06-05T12:01:10.485Z,23.40
2018-06-05T12:03:38.805Z,23.40
2018-06-05T12:06:07.285Z,23.30
2018-06-05T12:08:35.719Z,23.50
2018-06-05T12:11:04.057Z,23.90
2018-06-05T12:13:32.764Z,23.60
2018-06-05T12:16:01.217Z,23.60
2018-06-05T12:18:29.621Z,23.70
2018-06-05T12:20:58.000Z,23.60
2018-06-05T12:23:27.745Z,24.10
2018-06-05T12:25:56.106Z,24.50
2018-06-05T12:28:24.443Z,24.30
2018-06-05T12:30:52.974Z,24.40
2018-06-05T12:33:21.628Z,24.30
2018-06-05T12:35:50.001Z,24.20
2018-06-05T12:38:18.445Z,24.10
2018-06-05T12:40:47.147Z,24.10
2018-06-05T12:43:15.569Z,23.80
2018-06-05T12:45:44.714Z,23.80
2018-06-05T12:48:13.682Z,23.90
2018-06-05T12:50:42.809Z,23.90
2018-06-05T12:53:11.577Z,24.10
2018-06-05T12:55:39.897Z,24.30
2018-06-05T12:58:09.561Z,24.30
2018-06-05T13:00:38.553Z,24.30
2018-06-05T13:03:09.628Z,24.60
2018-06-05T13:05:38.101Z,24.50
2018-06-05T13:08:06.853Z,24.80
2018-06-05T13:10:35.365Z,24.40
2018-06-05T13:13:04.731Z,24.10
2018-06-05T13:15:34.152Z,24.10
2018-06-05T13:18:02.621Z,24.00
2018-06-05T13:20:31.082Z,24.50
2018-06-05T13:22:59.773Z,24.90
2018-06-05T13:25:28.574Z,24.60
2018-06-05T13:27:57.187Z,24.50
2018-06-05T13:30:25.510Z,24.70
2018-06-05T13:32:53.845Z,24.50
2018-06-05T13:35:22.192Z,24.70
2018-06-05T13:37:50.551Z,24.90
2018-06-05T13:40:18.932Z,24.90
2018-06-05T13:42:50.821Z,25.20
2018-06-05T13:45:21.152Z,25.10
2018-06-05T13:47:49.611Z,24.90
2018-06-05T13:50:19.198Z,25.60
2018-06-05T13:52:47.714Z,25.80
2018-06-05T13:55:16.601Z,25.50
2018-06-05T13:57:45.618Z,25.50
2018-06-05T14:00:14.477Z,25.50
2018-06-05T14:02:43.445Z,25.80
2018-06-05T14:05:13.797Z,25.60
2018-06-05T14:07:42.540Z,25.90
2018-06-05T14:10:11.911Z,26.00
2018-06-05T14:12:44.032Z,26.40
2018-06-05T14:15:13.568Z,27.20
2018-06-05T14:17:43.179Z,27.60
2018-06-05T14:20:11.817Z,27.60
2018-06-05T14:22:40.278Z,27.80
2018-06-05T14:25:09.575Z,27.50
2018-06-05T14:27:38.529Z,28.10
2018-06-05T14:30:07.775Z,28.00
2018-06-05T14:32:36.533Z,28.50
2018-06-05T14:35:07.465Z,28.10
2018-06-05T14:37:39.851Z,28.30
2018-06-05T14:40:10.624Z,28.10
2018-06-05T14:42:42.976Z,27.80
2018-06-05T14:45:15.274Z,28.50
2018-06-05T14:47:44.400Z,28.60
2018-06-05T14:50:13.339Z,28.50
2018-06-05T14:52:41.836Z,28.70
2018-06-05T14:55:10.894Z,28.80
2018-06-05T14:57:41.209Z,28.90
2018-06-05T15:00:11.063Z,28.40
2018-06-05T15:02:41.964Z,28.40
2018-06-05T15:05:13.835Z,28.40
2018-06-05T15:07:44.763Z,29.00
2018-06-05T15:10:14.614Z,29.00
2018-06-05T15:12:43.249Z,28.90
2018-06-05T15:15:11.982Z,28.20
2018-06-05T15:17:40.884Z,28.20
2018-06-05T15:20:11.338Z,28.10
2018-06-05T15:22:39.907Z,28.50
2018-06-05T15:25:08.417Z,28.20
2018-06-05T15:27:36.958Z,28.90
2018-06-05T15:30:07.938Z,28.90
2018-06-05T15:32:36.285Z,28.40
2018-06-05T15:35:05.381Z,28.30
2018-06-05T15:37:35.345Z,30.00
2018-06-05T15:40:04.331Z,29.90
2018-06-05T15:42:32.986Z,30.00
2018-06-05T15:45:03.020Z,29.70
2018-06-05T15:47:32.247Z,29.90
2018-06-05T15:50:01.097Z,30.00
2018-06-05T15:52:30.582Z,30.20
2018-06-05T15:54:59.518Z,30.70
2018-06-05T15:57:28.117Z,30.80
2018-06-05T15:59:56.958Z,30.40
2018-06-05T16:02:26.552Z,29.90
2018-06-05T16:04:55.222Z,29.80
2018-06-05T16:07:23.975Z,29.90
2018-06-05T16:09:53.574Z,29.60
2018-06-05T16:12:22.121Z,29.70
2018-06-05T16:14:50.941Z,29.80
2018-06-05T16:17:19.517Z,29.60
2018-06-05T16:19:47.888Z,29.10
2018-06-05T16:22:18.291Z,29.10
2018-06-05T16:24:48.702Z,29.20
2018-06-05T16:27:17.251Z,29.30
2018-06-05T16:29:47.943Z,29.40
2018-06-05T16:32:16.867Z,29.50
2018-06-05T16:34:46.518Z,30.00
2018-06-05T16:37:15.010Z,29.50
2018-06-05T16:39:43.425Z,28.70
2018-06-05T16:42:11.882Z,28.80
2018-06-05T16:44:40.965Z,29.20
2018-06-05T17:30:08.662Z,24.90
2018-06-05T18:34:30.556Z,25.10
2018-06-05T18:44:06.216Z,24.10
2018-06-05T18:46:35.610Z,23.50
2018-06-05T18:49:06.649Z,22.90
2018-06-05T18:51:37.049Z,22.50
2018-06-05T18:54:07.160Z,22.40
2018-06-05T18:56:35.965Z,22.50
2018-06-05T18:59:04.542Z,22.20
2018-06-05T19:01:32.931Z,22.10
2018-06-05T19:04:01.293Z,22.10
2018-06-05T19:06:33.313Z,21.90
2018-06-05T19:09:16.064Z,21.90
2018-06-05T19:14:19.174Z,21.70
2018-06-05T19:16:49.061Z,21.60
2018-06-05T19:19:22.610Z,21.50
2018-06-05T19:21:51.555Z,21.40
2018-06-05T19:24:29.418Z,21.40
2018-06-05T19:26:58.076Z,21.30
2018-06-05T19:29:27.150Z,21.20
2018-06-05T19:31:55.814Z,21.00
2018-06-05T19:34:24.424Z,21.00
2018-06-05T19:36:54.957Z,20.90
2018-06-05T19:39:28.763Z,20.80
2018-06-05T19:42:07.528Z,20.90
2018-06-05T19:44:46.271Z,20.80
2018-06-05T19:47:21.359Z,20.60
2018-06-05T19:50:01.694Z,20.60
2018-06-05T19:55:55.629Z,20.40
2018-06-05T20:08:39.153Z,20.40
2018-06-05T21:10:57.220Z,19.40
2018-06-05T21:13:54.905Z,19.20
2018-06-05T21:22:13.573Z,19.10
2018-06-05T21:24:43.022Z,18.90
2018-06-05T21:27:23.413Z,18.80
2018-06-05T21:43:30.286Z,19.10
2018-06-05T21:46:15.941Z,18.70
2018-06-05T21:48:52.050Z,18.50
2018-06-05T21:54:35.324Z,18.30
2018-06-05T21:57:07.434Z,18.20
2018-06-05T21:59:36.337Z,18.20
2018-06-05T22:02:05.812Z,18.20
2018-06-05T22:04:34.998Z,18.10
2018-06-05T22:07:03.857Z,18.20
2018-06-05T22:09:34.829Z,18.20
2018-06-05T22:15:19.008Z,18.10
2018-06-05T22:17:48.988Z,18.30
2018-06-05T22:23:31.759Z,18.20
2018-06-05T23:06:43.781Z,17.40
2018-06-05T23:17:09.635Z,17.30
2018-06-05T23:19:43.419Z,17.20
